Time;durP1;ratioP1;P1;durP2;ratioP2;P2;SDS_P1;SDS_P2;PMS_P1;PMS_P2;Temp;Humidity;BMP_temperature;BMP_pressure;BME280_temperature;BME280_humidity;BME280_pressure;Samples;Min_cycle;Max_cycle;Signal;HPM_P1;HPM_P2
2024/04/10 00:02:19;;;;;;;508.67;323.23;;;;;;;11.33;100.00;99599.28;5417480;26;20000;-46
2024/04/10 00:04:48;;;;;;;436.80;259.15;;;;;;;11.28;100.00;99599.00;5417405;26;20036;-46
2024/04/10 00:07:14;;;;;;;153.88;66.85;;;;;;;11.22;100.00;99596.31;5386107;26;20535;-46
2024/04/10 00:09:41;;;;;;;220.18;118.45;;;;;;;11.14;100.00;99597.22;5415707;26;20045;-46
2024/04/10 00:12:07;;;;;;;118.57;60.33;;;;;;;11.04;100.00;99594.03;5415682;26;20014;-46
2024/04/10 00:14:37;;;;;;;58.10;28.05;;;;;;;10.90;100.00;99599.09;5417480;26;20011;-45
2024/04/10 00:17:03;;;;;;;27.00;12.25;;;;;;;10.91;100.00;99600.75;5417349;26;20015;-46
2024/04/10 00:19:28;;;;;;;45.03;26.08;;;;;;;10.94;100.00;99600.38;5417289;26;20157;-46
2024/04/10 00:21:54;;;;;;;41.40;19.65;;;;;;;10.88;100.00;99590.56;5386045;26;20045;-46
2024/04/10 00:24:21;;;;;;;11.95;7.60;;;;;;;10.75;100.00;99595.66;5417271;26;20011;-46
2024/04/10 00:26:50;;;;;;;22.48;11.52;;;;;;;10.73;100.00;99595.00;5420486;26;20465;-46
2024/04/10 00:29:16;;;;;;;17.45;8.82;;;;;;;10.76;100.00;99594.63;5415492;26;20102;-46
2024/04/10 00:31:42;;;;;;;8.15;3.72;;;;;;;10.78;100.00;99596.13;5417220;26;20438;-46
2024/04/10 00:34:08;;;;;;;9.10;3.28;;;;;;;10.81;100.00;99597.56;5415349;26;20006;-46
2024/04/10 00:36:33;;;;;;;19.33;6.25;;;;;;;10.70;100.00;99598.78;5415256;26;20011;-45
2024/04/10 00:38:59;;;;;;;9.27;4.50;;;;;;;10.72;100.00;99601.25;5417096;26;20007;-46
2024/04/10 00:41:25;;;;;;;8.80;3.03;;;;;;;10.82;100.00;99601.00;5415277;26;20019;-46
2024/04/10 00:43:50;;;;;;;32.92;22.23;;;;;;;10.90;100.00;99593.03;5415193;26;20430;-46
2024/04/10 00:46:22;;;;;;;105.93;38.65;;;;;;;10.83;100.00;99600.81;5415136;26;20022;-46
2024/04/10 00:48:49;;;;;;;373.52;292.45;;;;;;;10.85;100.00;99592.78;5417233;26;20468;-47
2024/04/10 00:51:19;;;;;;;765.72;499.73;;;;;;;10.84;100.00;99593.75;5416807;26;20392;-46
2024/04/10 00:53:46;;;;;;;926.13;463.35;;;;;;;10.84;100.00;99599.81;5415157;26;20004;-46
2024/04/10 00:56:12;;;;;;;676.58;335.20;;;;;;;10.71;100.00;99600.44;5416739;26;20461;-46
2024/04/10 00:58:38;;;;;;;299.48;124.07;;;;;;;10.73;100.00;99592.38;5416855;26;20014;-46
2024/04/10 01:01:04;;;;;;;46.45;28.13;;;;;;;10.74;100.00;99584.31;5416797;26;20457;-46
2024/04/10 01:03:31;;;;;;;48.65;27.25;;;;;;;10.79;100.00;99594.31;5414863;26;20099;-46
2024/04/10 01:06:01;;;;;;;28.45;15.63;;;;;;;10.84;100.00;99586.69;5416662;26;20072;-46
2024/04/10 01:08:28;;;;;;;98.68;45.20;;;;;;;10.95;100.00;99591.50;5416680;26;19999;-46
2024/04/10 01:10:54;;;;;;;24.02;11.68;;;;;;;11.03;100.00;99587.97;5415391;26;20000;-46
2024/04/10 01:13:20;;;;;;;67.82;33.80;;;;;;;11.04;100.00;99586.16;5416615;26;20076;-46
2024/04/10 01:15:46;;;;;;;31.35;14.88;;;;;;;11.02;100.00;99590.78;5414769;26;20007;-46
2024/04/10 01:18:12;;;;;;;14.95;7.82;;;;;;;10.96;100.00;99580.00;5414821;26;20000;-46
2024/04/10 01:20:38;;;;;;;22.00;11.60;;;;;;;11.02;100.00;99582.91;5414607;26;20449;-46
2024/04/10 01:23:05;;;;;;;42.35;24.80;;;;;;;11.04;100.00;99586.16;5414619;26;20342;-45
2024/04/10 01:25:31;;;;;;;23.00;12.05;;;;;;;11.04;100.00;99588.78;5414218;26;20018;-46
2024/04/10 01:27:57;;;;;;;39.88;19.05;;;;;;;11.10;100.00;99588.06;5414771;26;20007;-46
2024/04/10 01:30:23;;;;;;;154.35;99.32;;;;;;;11.27;100.00;99593.94;5414445;26;20014;-46
2024/04/10 01:32:49;;;;;;;91.85;55.22;;;;;;;11.29;100.00;99592.78;5414520;26;19999;-46
2024/04/10 01:35:15;;;;;;;13.25;8.43;;;;;;;11.37;100.00;99590.06;5414380;26;20003;-46
2024/04/10 01:37:40;;;;;;;44.25;28.25;;;;;;;11.43;100.00;99591.13;5416031;26;20404;-46
2024/04/10 01:40:06;;;;;;;416.45;314.48;;;;;;;11.54;100.00;99595.09;5414327;26;20000;-46
2024/04/10 01:42:33;;;;;;;770.25;638.10;;;;;;;11.72;100.00;99598.13;5414356;26;19999;-46
2024/04/10 01:44:59;;;;;;;483.23;378.73;;;;;;;11.77;100.00;99600.19;5415931;26;20014;-46
2024/04/10 01:47:25;;;;;;;944.83;701.53;;;;;;;11.83;100.00;99604.75;5415971;26;20000;-46
2024/04/10 01:49:51;;;;;;;219.80;164.82;;;;;;;11.76;100.00;99603.84;5416038;26;20003;-47
2024/04/10 01:52:17;;;;;;;42.63;31.73;;;;;;;11.74;100.00;99601.41;5415829;26;20022;-46
2024/04/10 01:54:44;;;;;;;56.78;39.25;;;;;;;11.86;100.00;99600.94;5415765;26;20057;-46
2024/04/10 01:57:10;;;;;;;62.10;49.30;;;;;;;12.07;100.00;99595.69;5415829;26;20036;-46
2024/04/10 01:59:36;;;;;;;81.07;58.33;;;;;;;12.13;100.00;99605.50;5415677;26;20019;-47
2024/04/10 02:02:01;;;;;;;43.75;27.35;;;;;;;12.14;100.00;99601.84;5414097;26;20363;-46
2024/04/10 02:04:29;;;;;;;26.30;17.65;;;;;;;12.22;100.00;99603.53;5413867;26;20015;-46
2024/04/10 02:06:55;;;;;;;29.77;21.90;;;;;;;12.27;100.00;99608.25;5413939;26;20014;-46
2024/04/10 02:09:21;;;;;;;24.00;16.17;;;;;;;12.33;100.00;99610.13;5413839;26;20080;-46
2024/04/10 02:11:47;;;;;;;30.60;25.75;;;;;;;12.24;100.00;99606.81;5415568;26;20011;-46
2024/04/10 02:14:12;;;;;;;25.23;17.42;;;;;;;12.25;100.00;99607.63;5413729;26;20010;-46
2024/04/10 02:16:38;;;;;;;30.77;17.13;;;;;;;12.16;100.00;99610.38;5413662;26;20004;-47
2024/04/10 02:19:04;;;;;;;18.55;10.02;;;;;;;12.02;100.00;99605.19;5415554;26;20000;-46
2024/04/10 02:21:29;;;;;;;12.88;8.80;;;;;;;12.12;100.00;99609.13;5415381;26;20343;-47
2024/04/10 02:23:56;;;;;;;12.65;5.63;;;;;;;11.92;100.00;99608.09;5418783;26;20004;-46
2024/04/10 02:26:22;;;;;;;12.23;4.68;;;;;;;11.86;100.00;99614.06;5418672;26;20009;-46
2024/04/10 02:28:47;;;;;;;22.20;12.00;;;;;;;11.85;100.00;99610.63;5418944;26;20004;-46
2024/04/10 02:31:13;;;;;;;14.75;7.78;;;;;;;11.90;100.00;99610.91;5418952;26;20011;-46
2024/04/10 02:33:39;;;;;;;14.70;4.95;;;;;;;12.06;100.00;99604.59;5388011;26;19999;-46
2024/04/10 02:36:06;;;;;;;11.88;4.78;;;;;;;12.10;100.00;99610.31;5419080;26;20452;-46
2024/04/10 02:38:34;;;;;;;6.53;3.40;;;;;;;12.11;99.00;99615.41;5419099;26;20004;-46
2024/04/10 02:40:59;;;;;;;16.73;6.47;;;;;;;12.06;99.11;99617.75;5419257;26;20011;-46
2024/04/10 02:43:25;;;;;;;12.23;7.25;;;;;;;11.92;99.21;99610.72;5418903;26;20010;-47
2024/04/10 02:45:58;;;;;;;19.75;17.83;;;;;;;11.79;98.21;99617.44;5387607;26;20003;-46
2024/04/10 02:48:25;;;;;;;8.32;4.85;;;;;;;11.66;98.60;99625.16;5418873;26;20015;-47
2024/04/10 02:50:51;;;;;;;5.45;2.55;;;;;;;11.44;97.69;99631.38;5418878;26;20010;-46
2024/04/10 02:53:18;;;;;;;11.90;3.17;;;;;;;11.19;98.58;99639.53;5417207;26;20011;-46
2024/04/10 02:55:50;;;;;;;14.93;4.40;;;;;;;11.06;100.00;99634.06;5418818;26;20015;-46
2024/04/10 02:58:17;;;;;;;9.05;2.10;;;;;;;11.03;100.00;99632.63;5419269;26;20007;-46
2024/04/10 03:00:56;;;;;;;6.15;2.28;;;;;;;11.10;99.09;99636.16;5417353;26;20011;-46
2024/04/10 03:03:23;;;;;;;4.70;1.80;;;;;;;11.22;100.00;99635.72;5419023;26;20003;-46
2024/04/10 03:06:03;;;;;;;4.05;1.45;;;;;;;11.32;99.31;99639.69;5418704;26;20018;-46
2024/04/10 03:08:29;;;;;;;9.10;2.53;;;;;;;11.40;99.46;99642.22;5418743;26;20031;-46
2024/04/10 03:10:55;;;;;;;7.05;2.70;;;;;;;11.37;99.08;99645.25;5416922;26;20010;-46
2024/04/10 03:13:21;;;;;;;8.65;4.25;;;;;;;11.35;99.55;99651.69;5418686;26;20353;-46
2024/04/10 03:15:46;;;;;;;6.80;1.90;;;;;;;11.21;99.37;99650.69;5418613;26;20010;-46
2024/04/10 03:18:12;;;;;;;5.65;1.90;;;;;;;11.14;98.15;99650.56;5416957;26;20000;-46
2024/04/10 03:20:38;;;;;;;6.60;3.90;;;;;;;11.20;99.00;99643.78;5418684;26;20000;-46
2024/04/10 03:23:04;;;;;;;5.10;1.60;;;;;;;11.26;98.38;99645.69;5416696;26;20371;-45
2024/04/10 03:25:33;;;;;;;9.90;1.73;;;;;;;11.31;98.78;99639.91;5417968;26;20296;-45
2024/04/10 03:27:59;;;;;;;4.95;1.23;;;;;;;11.38;98.06;99649.47;5418217;26;20035;-46
2024/04/10 03:30:26;;;;;;;7.65;1.75;;;;;;;11.37;97.36;99647.88;5417937;26;19999;-46
2024/04/10 03:32:52;;;;;;;2.78;1.38;;;;;;;11.38;96.50;99654.75;5417933;26;20465;-46
2024/04/10 03:35:18;;;;;;;8.32;1.90;;;;;;;11.27;93.27;99657.00;5415319;26;20003;-46
2024/04/10 03:37:45;;;;;;;4.32;2.10;;;;;;;11.19;93.56;99657.94;5417996;26;20003;-46
2024/04/10 03:40:11;;;;;;;7.60;3.85;;;;;;;11.16;93.13;99660.91;5416192;26;20000;-46
2024/04/10 03:42:37;;;;;;;7.57;2.28;;;;;;;11.07;91.26;99664.63;5416126;26;20000;-46
2024/04/10 03:45:03;;;;;;;7.63;2.15;;;;;;;10.94;91.09;99666.03;5417929;26;20011;-46
2024/04/10 03:47:29;;;;;;;9.95;2.10;;;;;;;10.90;92.40;99662.13;5415999;26;20003;-46
2024/04/10 03:49:55;;;;;;;4.43;1.05;;;;;;;10.87;91.36;99667.75;5417760;26;20016;-46
2024/04/10 03:52:21;;;;;;;9.07;2.47;;;;;;;10.73;91.53;99664.09;5417684;26;20008;-46
2024/04/10 03:54:47;;;;;;;5.00;1.23;;;;;;;10.65;88.97;99672.03;5416053;26;20079;-46
2024/04/10 03:57:12;;;;;;;6.95;2.13;;;;;;;10.56;90.09;99675.69;5417775;26;20000;-46
2024/04/10 03:59:38;;;;;;;5.25;1.40;;;;;;;10.49;90.55;99678.22;5417850;26;20326;-46
2024/04/10 04:02:04;;;;;;;7.13;1.52;;;;;;;10.42;90.25;99679.91;5415766;26;20014;-46
2024/04/10 04:04:29;;;;;;;7.13;1.30;;;;;;;10.37;91.03;99679.63;5417424;26;20000;-46
2024/04/10 04:06:55;;;;;;;7.38;4.28;;;;;;;10.29;90.87;99688.31;5415786;26;20000;-46
2024/04/10 04:09:22;;;;;;;8.05;2.47;;;;;;;10.39;91.44;99693.38;5417454;26;20449;-46
2024/04/10 04:11:48;;;;;;;5.75;1.75;;;;;;;10.35;91.20;99687.66;5417440;26;19999;-46
2024/04/10 04:14:14;;;;;;;7.60;1.60;;;;;;;10.36;92.34;99685.84;5415655;26;20018;-46
2024/04/10 04:16:40;;;;;;;16.95;11.43;;;;;;;10.30;91.79;99684.75;5417465;26;20000;-46
2024/04/10 04:19:06;;;;;;;6.45;3.97;;;;;;;10.27;90.61;99695.53;5415721;26;20011;-46
2024/04/10 04:21:31;;;;;;;6.93;2.08;;;;;;;10.33;90.64;99697.50;5417384;26;20341;-46
2024/04/10 04:24:01;;;;;;;7.57;1.95;;;;;;;10.36;91.45;99698.97;5417251;26;20040;-46
2024/04/10 04:26:26;;;;;;;7.40;3.45;;;;;;;10.27;91.39;99700.00;5417122;26;20011;-46
2024/04/10 04:28:53;;;;;;;8.85;3.72;;;;;;;10.13;91.64;99702.34;5386258;26;20007;-46
2024/04/10 04:31:19;;;;;;;9.20;2.00;;;;;;;9.98;91.93;99701.47;5417571;26;20067;-46
2024/04/10 04:33:45;;;;;;;6.13;2.45;;;;;;;9.89;92.01;99691.97;5386215;26;20004;-46
2024/04/10 04:36:10;;;;;;;11.55;8.15;;;;;;;9.90;92.24;99704.09;5386123;26;19999;-46
2024/04/10 04:38:37;;;;;;;10.43;5.88;;;;;;;9.89;91.50;99707.72;5417413;26;20338;-45
2024/04/10 04:41:03;;;;;;;5.60;2.17;;;;;;;9.87;89.94;99701.81;5417360;26;20004;-46
2024/04/10 04:43:29;;;;;;;4.53;1.88;;;;;;;9.86;90.39;99705.41;5415444;26;20011;-46
2024/04/10 04:45:55;;;;;;;10.82;7.25;;;;;;;9.77;89.36;99712.50;5413896;26;20098;-46
2024/04/10 04:48:21;;;;;;;5.53;3.10;;;;;;;9.74;89.02;99703.19;5417298;26;20014;-46
2024/04/10 04:50:48;;;;;;;8.63;3.75;;;;;;;9.81;89.05;99700.69;5415385;26;20000;-46
2024/04/10 04:53:15;;;;;;;63.22;57.03;;;;;;;9.87;87.85;99710.50;5415305;26;20011;-46
2024/04/10 04:55:41;;;;;;;15.02;4.60;;;;;;;9.92;88.94;99694.25;5417148;26;19999;-46
2024/04/10 04:58:07;;;;;;;18.55;5.78;;;;;;;9.93;87.36;99711.63;5415360;26;20010;-46
2024/04/10 05:00:33;;;;;;;22.77;20.05;;;;;;;9.93;86.63;99716.88;5417105;26;20109;-45
2024/04/10 05:03:00;;;;;;;10.35;8.02;;;;;;;9.86;85.82;99700.19;5385872;26;20072;-45
2024/04/10 05:05:26;;;;;;;17.30;15.57;;;;;;;9.75;84.35;99712.66;5416818;26;20003;-46
2024/04/10 05:07:52;;;;;;;24.23;16.35;;;;;;;9.71;85.28;99714.00;5416979;26;20011;-46
2024/04/10 05:10:19;;;;;;;19.13;14.40;;;;;;;9.68;85.21;99708.28;5417041;26;20011;-45
2024/04/10 05:12:45;;;;;;;9.75;8.45;;;;;;;9.70;85.53;99720.25;5416923;26;20000;-46
2024/04/10 05:15:15;;;;;;;6.80;3.28;;;;;;;9.68;84.82;99721.38;5416841;26;20080;-46
2024/04/10 05:17:45;;;;;;;9.27;6.18;;;;;;;9.68;85.03;99721.38;5416868;26;20363;-46
2024/04/10 05:20:12;;;;;;;12.95;11.50;;;;;;;9.74;84.91;99729.41;5416956;26;20076;-46
2024/04/10 05:22:42;;;;;;;12.57;6.55;;;;;;;9.79;83.63;99719.22;5416747;26;20454;-46
2024/04/10 05:25:10;;;;;;;8.82;2.55;;;;;;;9.84;82.88;99720.50;5416569;26;20000;-46
2024/04/10 05:27:41;;;;;;;9.93;6.03;;;;;;;9.85;83.87;99709.84;5414399;26;20010;-46
2024/04/10 05:30:09;;;;;;;9.88;6.82;;;;;;;9.99;83.87;99726.69;5416278;26;20341;-46
2024/04/10 05:32:36;;;;;;;10.20;5.70;;;;;;;10.04;84.19;99719.13;5414560;26;19999;-46
2024/04/10 05:35:06;;;;;;;6.38;2.30;;;;;;;10.12;82.72;99711.22;5416145;26;20010;-46
2024/04/10 05:37:32;;;;;;;4.50;2.50;;;;;;;10.26;81.08;99716.69;5416167;26;20014;-45
2024/04/10 05:40:08;;;;;;;6.63;1.70;;;;;;;10.70;79.58;99713.50;5384922;26;20003;-46
2024/04/10 05:42:35;;;;;;;7.03;2.60;;;;;;;11.18;77.13;99711.47;5414545;26;20000;-45
2024/04/10 05:45:05;;;;;;;7.90;4.45;;;;;;;11.17;75.63;99718.53;5415901;26;20400;-46
2024/04/10 05:47:31;;;;;;;9.77;4.63;;;;;;;11.38;75.78;99717.81;5414408;26;20019;-45
2024/04/10 05:49:57;;;;;;;3.50;1.80;;;;;;;12.36;72.45;99710.59;5414344;26;20466;-45
2024/04/10 05:52:23;;;;;;;8.13;1.45;;;;;;;13.34;67.87;99713.50;5415776;26;20004;-45
2024/04/10 05:54:49;;;;;;;5.13;2.13;;;;;;;14.09;65.14;99721.59;5416006;26;20015;-46
2024/04/10 05:57:15;;;;;;;4.22;1.70;;;;;;;14.57;62.07;99710.16;5416924;26;20004;-46
2024/04/10 05:59:41;;;;;;;5.15;2.58;;;;;;;14.84;60.35;99703.06;5388192;26;20370;-46
2024/04/10 06:02:06;;;;;;;5.15;2.05;;;;;;;15.16;59.64;99706.72;5419315;26;20011;-46
2024/04/10 06:04:32;;;;;;;4.30;1.92;;;;;;;15.51;58.22;99719.69;5419172;26;20037;-46
2024/04/10 06:06:58;;;;;;;3.65;1.67;;;;;;;15.56;58.04;99703.19;5419274;26;20010;-46
2024/04/10 06:09:24;;;;;;;4.00;1.70;;;;;;;15.68;58.80;99706.81;5419237;26;19999;-46
2024/04/10 06:11:49;;;;;;;7.18;4.22;;;;;;;15.77;55.79;99702.97;5419092;26;20013;-46
2024/04/10 06:14:15;;;;;;;5.18;1.33;;;;;;;15.84;54.71;99712.72;5419091;26;20077;-46
2024/04/10 06:16:41;;;;;;;7.30;1.73;;;;;;;16.07;53.97;99714.84;5419132;26;20018;-45
2024/04/10 06:19:06;;;;;;;5.28;2.35;;;;;;;16.36;53.28;99722.25;5417532;26;20000;-46
2024/04/10 06:21:33;;;;;;;6.47;3.10;;;;;;;16.56;51.38;99711.53;5418980;26;20430;-46
2024/04/10 06:23:58;;;;;;;6.07;2.85;;;;;;;16.76;50.94;99710.56;5419047;26;20423;-46
2024/04/10 06:26:24;;;;;;;7.95;3.55;;;;;;;17.03;49.97;99703.25;5418532;26;20035;-46
2024/04/10 06:28:50;;;;;;;5.90;2.78;;;;;;;17.17;48.52;99709.25;5419254;26;19999;-47
2024/04/10 06:31:16;;;;;;;4.13;1.95;;;;;;;17.27;47.91;99706.91;5419154;26;20449;-45
2024/04/10 06:33:41;;;;;;;10.82;4.35;;;;;;;17.32;48.01;99704.41;5419171;26;20009;-45
2024/04/10 06:36:08;;;;;;;6.82;2.85;;;;;;;17.45;48.06;99708.78;5419126;26;20080;-45
2024/04/10 06:38:34;;;;;;;5.57;1.70;;;;;;;17.55;46.41;99706.41;5418837;26;20003;-45
2024/04/10 06:41:02;;;;;;;6.50;1.52;;;;;;;17.44;45.75;99687.75;5418743;26;20011;-46
2024/04/10 06:43:28;;;;;;;3.88;1.40;;;;;;;17.44;46.24;99707.13;5417026;26;20004;-46
2024/04/10 06:46:05;;;;;;;8.00;1.25;;;;;;;17.42;46.50;99719.81;5418560;26;20064;-45
2024/04/10 06:48:31;;;;;;;6.50;1.70;;;;;;;17.36;46.46;99720.69;5418727;26;19999;-44
2024/04/10 06:51:00;;;;;;;7.32;1.70;;;;;;;17.42;46.56;99724.31;5416803;26;20014;-44
2024/04/10 06:53:27;;;;;;;4.60;2.13;;;;;;;17.81;46.06;99738.19;5418521;26;20014;-43
2024/04/10 06:55:55;;;;;;;5.78;1.65;;;;;;;18.42;44.07;99728.50;5416843;26;20004;-44
2024/04/10 06:58:21;;;;;;;10.68;2.67;;;;;;;19.38;43.02;99723.09;5418495;26;20000;-44
2024/04/10 07:01:00;;;;;;;8.73;1.50;;;;;;;19.39;40.52;99727.38;5418597;26;20011;-44
2024/04/10 07:03:26;;;;;;;7.68;1.70;;;;;;;19.45;41.62;99739.75;5418527;26;20043;-44
2024/04/10 07:06:02;;;;;;;7.68;1.58;;;;;;;20.30;40.77;99723.16;5418197;26;19999;-44
2024/04/10 07:08:28;;;;;;;10.10;1.80;;;;;;;20.38;38.64;99729.94;5417489;26;20379;-43
2024/04/10 07:10:53;;;;;;;9.35;2.92;;;;;;;21.06;38.54;99727.38;5418116;26;19999;-44
2024/04/10 07:13:19;;;;;;;11.80;5.60;;;;;;;21.77;37.72;99729.44;5416568;26;20412;-44
2024/04/10 07:15:45;;;;;;;10.50;1.90;;;;;;;22.30;36.11;99731.44;5418492;26;20003;-44
2024/04/10 07:18:10;;;;;;;7.88;1.88;;;;;;;22.56;34.77;99726.34;5418226;26;20072;-44
2024/04/10 07:20:36;;;;;;;11.90;2.45;;;;;;;22.74;35.07;99727.81;5418277;26;20011;-44
2024/04/10 07:23:02;;;;;;;7.30;1.80;;;;;;;23.03;32.94;99735.56;5418261;26;20430;-44
2024/04/10 07:25:27;;;;;;;6.13;1.77;;;;;;;23.22;32.85;99720.72;5418092;26;20427;-44
2024/04/10 07:27:54;;;;;;;9.75;2.00;;;;;;;23.32;32.23;99720.78;5417942;26;20018;-44
2024/04/10 07:30:20;;;;;;;5.78;1.52;;;;;;;23.37;32.57;99732.59;5416369;26;20015;-44
2024/04/10 07:32:45;;;;;;;6.18;1.40;;;;;;;23.14;32.26;99715.84;5416351;26;20426;-44
2024/04/10 07:35:11;;;;;;;6.20;2.13;;;;;;;23.11;32.33;99733.22;5386825;26;20015;-44
2024/04/10 07:37:37;;;;;;;6.75;1.90;;;;;;;23.52;32.26;99738.00;5416307;26;20010;-44
2024/04/10 07:40:03;;;;;;;6.47;1.60;;;;;;;24.03;32.25;99732.91;5417887;26;20009;-44
2024/04/10 07:42:29;;;;;;;8.43;2.13;;;;;;;24.43;30.67;99718.00;5417953;26;20000;-44
2024/04/10 07:44:55;;;;;;;7.05;1.63;;;;;;;24.40;29.70;99721.19;5416185;26;19999;-45
2024/04/10 07:47:21;;;;;;;8.88;1.67;;;;;;;24.19;29.44;99719.56;5416100;26;20003;-44
2024/04/10 07:49:47;;;;;;;4.75;1.42;;;;;;;23.82;29.77;99717.81;5417943;26;20334;-44
2024/04/10 07:52:12;;;;;;;6.32;1.45;;;;;;;23.45;29.84;99710.66;5417922;26;20003;-43
2024/04/10 07:54:39;;;;;;;8.23;1.60;;;;;;;22.89;30.54;99730.59;5416275;26;20015;-44
2024/04/10 07:57:05;;;;;;;5.05;1.60;;;;;;;23.07;30.24;99732.13;5417824;26;20158;-44
2024/04/10 07:59:30;;;;;;;8.07;1.67;;;;;;;22.98;30.86;99735.50;5417829;26;20349;-44
2024/04/10 08:01:56;;;;;;;10.23;2.63;;;;;;;23.16;30.76;99745.84;5415885;26;20003;-44
2024/04/10 08:04:22;;;;;;;13.45;2.13;;;;;;;23.30;30.57;99743.50;5417595;26;20449;-44
2024/04/10 08:06:48;;;;;;;11.98;1.85;;;;;;;23.71;29.39;99731.16;5417571;26;20473;-44
2024/04/10 08:09:14;;;;;;;12.88;2.50;;;;;;;24.09;29.39;99739.09;5417576;26;20004;-44
2024/04/10 08:11:40;;;;;;;16.50;1.60;;;;;;;24.75;28.92;99743.81;5415958;26;20014;-44
2024/04/10 08:14:06;;;;;;;10.60;1.88;;;;;;;25.36;28.52;99739.50;5415790;26;20018;-45
2024/04/10 08:16:32;;;;;;;16.30;2.03;;;;;;;26.18;27.35;99728.41;5417330;26;20003;-44
2024/04/10 08:18:58;;;;;;;8.23;2.95;;;;;;;26.25;26.28;99731.63;5417487;26;20014;-44
2024/04/10 08:21:23;;;;;;;7.97;1.70;;;;;;;25.92;26.12;99725.88;5416998;26;20015;-44
2024/04/10 08:23:49;;;;;;;5.70;1.40;;;;;;;25.34;26.88;99737.06;5417400;26;20372;-44
2024/04/10 08:26:17;;;;;;;8.05;1.88;;;;;;;25.29;27.21;99740.59;5385768;26;20031;-44
2024/04/10 08:28:45;;;;;;;6.90;1.58;;;;;;;25.46;27.02;99736.78;5417601;26;20003;-44
2024/04/10 08:31:13;;;;;;;6.97;1.67;;;;;;;25.62;26.11;99734.84;5417558;26;20044;-44
2024/04/10 08:33:39;;;;;;;8.27;1.63;;;;;;;25.28;26.48;99740.84;5417581;26;20080;-45
2024/04/10 08:36:06;;;;;;;6.95;1.80;;;;;;;25.14;27.18;99734.41;5417312;26;20024;-44
2024/04/10 08:38:32;;;;;;;5.20;1.63;;;;;;;25.40;27.08;99730.59;5417486;26;20000;-45
2024/04/10 08:40:58;;;;;;;11.45;2.50;;;;;;;25.25;26.81;99731.47;5417125;26;20454;-44
2024/04/10 08:43:31;;;;;;;6.63;1.75;;;;;;;25.24;27.35;99729.84;5415332;26;20014;-44
2024/04/10 08:45:57;;;;;;;9.95;2.88;;;;;;;25.46;26.58;99717.97;5417112;26;20031;-45
2024/04/10 08:48:25;;;;;;;7.43;1.92;;;;;;;25.40;26.88;99727.13;5416998;26;20000;-45
2024/04/10 08:50:53;;;;;;;12.38;2.17;;;;;;;25.51;26.54;99728.69;5416916;26;20100;-45
2024/04/10 08:53:20;;;;;;;10.73;3.05;;;;;;;24.71;27.42;99721.28;5415035;26;20458;-45
2024/04/10 08:55:46;;;;;;;10.05;2.25;;;;;;;23.81;28.69;99737.66;5416872;26;20011;-44
2024/04/10 08:58:12;;;;;;;9.23;2.10;;;;;;;23.75;29.46;99722.59;5416732;26;20080;-45
2024/04/10 09:00:45;;;;;;;6.82;2.10;;;;;;;23.66;29.17;99719.59;5385532;26;20010;-45
2024/04/10 09:03:14;;;;;;;7.93;1.98;;;;;;;23.44;29.11;99727.78;5416787;26;20014;-45
2024/04/10 09:05:41;;;;;;;5.60;1.73;;;;;;;22.90;29.58;99734.91;5414995;26;20010;-44
2024/04/10 09:08:08;;;;;;;9.48;2.05;;;;;;;22.57;29.89;99724.47;5414984;26;20076;-43
2024/04/10 09:10:34;;;;;;;10.55;2.10;;;;;;;22.35;30.39;99730.66;5416708;26;20027;-44
2024/04/10 09:13:04;;;;;;;7.85;1.75;;;;;;;22.08;31.09;99723.41;5416718;26;20479;-45
2024/04/10 09:15:30;;;;;;;5.25;1.95;;;;;;;22.63;30.12;99734.94;5416552;26;20004;-43
2024/04/10 09:17:57;;;;;;;8.52;2.42;;;;;;;23.83;29.53;99724.81;5416619;26;20011;-44
2024/04/10 09:20:22;;;;;;;8.43;2.05;;;;;;;23.58;28.96;99728.13;5416480;26;20454;-44
2024/04/10 09:23:03;;;;;;;9.40;2.13;;;;;;;23.13;28.59;99716.91;5416450;26;20004;-44
2024/04/10 09:25:30;;;;;;;8.18;1.77;;;;;;;22.48;28.06;99714.22;5416453;26;20003;-44
2024/04/10 09:28:03;;;;;;;10.88;2.60;;;;;;;22.10;29.72;99720.50;5416224;26;20327;-44
2024/04/10 09:30:33;;;;;;;15.73;2.10;;;;;;;21.27;29.40;99702.59;5416528;26;20000;-44
2024/04/10 09:33:03;;;;;;;23.10;7.82;;;;;;;20.64;31.21;99706.41;5413741;26;20881;-44
2024/04/10 09:35:30;;;;;;;14.93;3.72;;;;;;;20.43;32.05;99706.03;5414816;26;20010;-44
2024/04/10 09:37:59;;;;;;;18.55;8.90;;;;;;;19.85;32.86;99725.72;5385270;26;20011;-44
2024/04/10 09:40:27;;;;;;;17.33;5.75;;;;;;;18.94;34.43;99731.41;5416608;26;19999;-44
2024/04/10 09:43:04;;;;;;;12.35;2.50;;;;;;;18.04;35.66;99732.25;5416188;26;20000;-44
2024/04/10 09:45:37;;;;;;;14.18;2.17;;;;;;;18.57;35.92;99720.88;5414375;26;20445;-43
2024/04/10 09:48:05;;;;;;;10.25;3.72;;;;;;;20.05;33.83;99720.00;5416089;26;20014;-43
2024/04/10 09:50:35;;;;;;;6.47;2.47;;;;;;;21.08;31.35;99727.94;5416245;26;20003;-44
2024/04/10 09:53:03;;;;;;;16.23;1.92;;;;;;;20.30;33.53;99740.97;5415884;26;20011;-44
2024/04/10 09:55:32;;;;;;;9.48;2.08;;;;;;;21.92;32.08;99717.06;5415915;26;20043;-44
2024/04/10 09:58:00;;;;;;;7.13;2.33;;;;;;;23.43;29.09;99726.19;5415915;26;20080;-44
2024/04/10 10:00:26;;;;;;;7.63;1.83;;;;;;;23.19;28.51;99721.22;5415767;26;20022;-44
2024/04/10 10:03:03;;;;;;;11.88;2.13;;;;;;;23.55;29.11;99702.69;5415740;26;19999;-44
2024/04/10 10:05:28;;;;;;;10.52;1.75;;;;;;;23.84;27.08;99702.28;5415751;26;20000;-44
2024/04/10 10:08:14;;;;;;;6.00;1.25;;;;;;;24.35;26.18;99712.31;5415594;26;20014;-44
2024/04/10 10:10:52;;;;;;;5.00;1.50;;;;;;;24.58;24.92;99725.28;5413968;26;20442;-44
2024/04/10 10:13:41;;;;;;;8.10;1.58;;;;;;;24.61;25.08;99722.06;5415612;26;20000;-44
2024/04/10 10:16:07;;;;;;;7.78;3.80;;;;;;;24.78;25.63;99718.31;5415593;26;20440;-44
2024/04/10 10:18:32;;;;;;;17.92;8.77;;;;;;;24.92;25.78;99716.69;5415476;26;20003;-44
2024/04/10 10:21:07;;;;;;;12.40;4.10;;;;;;;24.72;25.87;99714.81;5413603;26;19999;-44
2024/04/10 10:23:37;;;;;;;4.55;2.17;;;;;;;24.58;25.29;99701.13;5415511;26;20014;-44
2024/04/10 10:26:04;;;;;;;11.07;2.10;;;;;;;23.66;26.26;99685.59;5415095;26;20003;-45
2024/04/10 10:28:31;;;;;;;12.63;3.90;;;;;;;23.67;26.18;99700.56;5413717;26;20027;-44
2024/04/10 10:31:06;;;;;;;7.07;2.67;;;;;;;24.33;25.52;99709.94;5415177;26;20014;-44
2024/04/10 10:33:32;;;;;;;7.47;1.65;;;;;;;23.72;25.64;99697.94;5415419;26;20035;-44
2024/04/10 10:35:58;;;;;;;6.80;1.70;;;;;;;23.02;27.49;99705.31;5415105;26;20076;-44
2024/04/10 10:38:23;;;;;;;9.18;1.67;;;;;;;23.42;27.10;99712.00;5415127;26;20010;-43
2024/04/10 10:40:49;;;;;;;9.40;1.83;;;;;;;24.05;26.60;99701.28;5415174;26;20011;-44
2024/04/10 10:43:15;;;;;;;8.00;1.90;;;;;;;24.92;25.16;99692.50;5416104;26;20450;-44
2024/04/10 10:45:41;;;;;;;8.80;1.55;;;;;;;24.78;24.68;99678.03;5418657;26;20238;-44
2024/04/10 10:48:14;;;;;;;7.53;1.42;;;;;;;23.77;25.98;99680.25;5417052;26;19999;-44
2024/04/10 10:50:39;;;;;;;13.35;1.83;;;;;;;22.53;27.70;99706.22;5418695;26;20011;-44
2024/04/10 10:53:08;;;;;;;8.15;1.45;;;;;;;22.61;28.58;99691.56;5416798;26;20352;-44
2024/04/10 10:55:34;;;;;;;4.68;1.58;;;;;;;22.66;28.22;99707.69;5418602;26;20003;-44
2024/04/10 10:58:08;;;;;;;7.75;2.20;;;;;;;22.56;28.48;99690.72;5418632;26;20462;-43
2024/04/10 11:00:34;;;;;;;7.35;1.95;;;;;;;22.99;27.23;99691.59;5416894;26;20101;-43
2024/04/10 11:03:08;;;;;;;4.20;0.95;;;;;;;23.74;26.77;99673.53;5418572;26;19999;-44
2024/04/10 11:05:34;;;;;;;10.07;1.70;;;;;;;24.06;25.81;99686.78;5416639;26;20011;-44
2024/04/10 11:08:00;;;;;;;7.72;1.77;;;;;;;23.78;26.19;99674.63;5418587;26;20019;-44
2024/04/10 11:10:29;;;;;;;4.93;1.85;;;;;;;22.83;26.32;99664.72;5416573;26;20496;-44
2024/04/10 11:13:06;;;;;;;3.47;1.52;;;;;;;21.94;27.90;99676.75;5418270;26;19999;-43
2024/04/10 11:15:42;;;;;;;5.78;1.20;;;;;;;22.18;27.89;99679.13;5418326;26;20006;-44
2024/04/10 11:18:09;;;;;;;7.72;1.65;;;;;;;22.63;26.75;99659.22;5418250;26;20077;-44
2024/04/10 11:20:35;;;;;;;7.68;1.90;;;;;;;22.73;27.04;99670.00;5418385;26;20010;-44
2024/04/10 11:23:07;;;;;;;10.18;2.20;;;;;;;22.74;27.07;99669.75;5416429;26;20004;-44
2024/04/10 11:25:34;;;;;;;7.85;1.50;;;;;;;22.83;26.51;99650.53;5418070;26;20039;-43
2024/04/10 11:28:02;;;;;;;6.10;1.20;;;;;;;22.62;26.42;99665.66;5416400;26;20004;-44